createdAt,value
2017-08-13T00:00:03.540Z,0
2017-08-13T00:00:29.631Z,0
2017-08-13T00:00:55.759Z,0
2017-08-13T00:01:21.953Z,0
2017-08-13T00:01:48.114Z,0
2017-08-13T00:02:14.262Z,0
2017-08-13T00:02:40.352Z,0
2017-08-13T00:03:06.543Z,0
2017-08-13T00:03:32.663Z,0
2017-08-13T00:03:58.802Z,0
2017-08-13T00:04:24.961Z,0
2017-08-13T00:04:51.089Z,0
2017-08-13T00:05:17.204Z,0
2017-08-13T00:05:43.331Z,0
2017-08-13T00:06:09.466Z,0
2017-08-13T00:06:35.608Z,0
2017-08-13T00:07:01.731Z,0
2017-08-13T00:07:27.843Z,0
2017-08-13T00:07:53.948Z,0
2017-08-13T00:08:20.099Z,0
2017-08-13T00:08:46.187Z,0
2017-08-13T00:09:12.342Z,0
2017-08-13T00:09:38.445Z,0
2017-08-13T00:10:04.536Z,0
2017-08-13T00:10:30.703Z,0
2017-08-13T00:10:56.809Z,0
2017-08-13T00:11:22.898Z,0
2017-08-13T00:11:49.020Z,0
2017-08-13T00:12:15.144Z,0
2017-08-13T00:12:41.247Z,0
2017-08-13T00:13:07.405Z,0
2017-08-13T00:13:33.517Z,0
2017-08-13T00:13:59.666Z,0
2017-08-13T00:14:25.801Z,0
2017-08-13T00:14:51.913Z,0
2017-08-13T00:15:18.032Z,0
2017-08-13T00:15:44.137Z,0
2017-08-13T00:16:10.285Z,0
2017-08-13T00:16:36.423Z,0
2017-08-13T00:17:02.531Z,0
2017-08-13T00:17:28.653Z,0
2017-08-13T00:17:54.779Z,0
2017-08-13T00:18:20.894Z,0
2017-08-13T00:18:47.016Z,0
2017-08-13T00:19:13.177Z,0
2017-08-13T00:19:39.272Z,0
2017-08-13T00:20:05.384Z,0
2017-08-13T00:20:31.518Z,0
2017-08-13T00:20:57.640Z,0
2017-08-13T00:21:23.758Z,0
2017-08-13T00:21:49.911Z,0
2017-08-13T00:22:16.008Z,0
2017-08-13T00:22:42.146Z,0
2017-08-13T00:23:08.293Z,0
2017-08-13T00:23:34.383Z,0
2017-08-13T00:24:00.491Z,0
2017-08-13T00:24:26.614Z,0
2017-08-13T00:24:52.776Z,0
2017-08-13T00:25:18.905Z,0
2017-08-13T00:25:45.033Z,0
2017-08-13T00:26:11.194Z,0
2017-08-13T00:26:37.342Z,0
2017-08-13T00:27:03.444Z,0
2017-08-13T00:27:29.532Z,0
2017-08-13T00:27:55.657Z,0
2017-08-13T00:28:21.791Z,0
2017-08-13T00:28:47.983Z,0
2017-08-13T00:29:14.110Z,0
2017-08-13T00:29:40.222Z,0
2017-08-13T00:30:06.378Z,0
2017-08-13T00:30:32.479Z,0
2017-08-13T00:30:58.568Z,0
2017-08-13T00:31:24.667Z,0
2017-08-13T00:31:50.800Z,0
2017-08-13T00:32:16.938Z,0
2017-08-13T00:32:43.057Z,0
2017-08-13T00:33:09.246Z,0
2017-08-13T00:33:35.340Z,0
2017-08-13T00:34:01.431Z,0
2017-08-13T00:34:27.617Z,0
2017-08-13T00:34:53.792Z,0
2017-08-13T00:35:19.952Z,0
2017-08-13T00:35:46.082Z,0
2017-08-13T00:36:12.207Z,0
2017-08-13T00:36:38.320Z,0
2017-08-13T00:37:04.474Z,0
2017-08-13T00:37:30.606Z,0
2017-08-13T00:37:56.742Z,0
2017-08-13T00:38:22.921Z,0
2017-08-13T00:38:49.071Z,0
2017-08-13T00:39:15.163Z,0
2017-08-13T00:39:41.283Z,0
2017-08-13T00:40:07.460Z,0
2017-08-13T00:40:33.590Z,0
2017-08-13T00:40:59.756Z,0
2017-08-13T00:41:25.870Z,0
2017-08-13T00:41:52.015Z,0
2017-08-13T00:42:18.175Z,0
2017-08-13T00:42:44.318Z,0
2017-08-13T00:43:10.463Z,0
2017-08-13T00:43:36.565Z,0
2017-08-13T00:44:02.690Z,0
2017-08-13T00:44:28.772Z,0
2017-08-13T00:44:54.883Z,0
2017-08-13T00:45:20.979Z,0
2017-08-13T00:45:47.106Z,0
2017-08-13T00:46:13.198Z,0
2017-08-13T00:46:39.318Z,0
2017-08-13T00:47:05.423Z,0
2017-08-13T00:47:31.544Z,0
2017-08-13T00:47:57.685Z,0
2017-08-13T00:48:23.847Z,0
2017-08-13T00:48:50.021Z,0
2017-08-13T00:49:16.134Z,0
2017-08-13T00:49:42.269Z,0
2017-08-13T00:50:08.424Z,0
2017-08-13T00:50:34.539Z,0
2017-08-13T00:51:00.694Z,0
2017-08-13T00:51:26.838Z,0
2017-08-13T00:51:52.995Z,0
2017-08-13T00:52:19.145Z,0
2017-08-13T00:52:45.257Z,0
2017-08-13T00:53:11.391Z,0
2017-08-13T00:53:37.601Z,0
2017-08-13T00:54:03.716Z,0
2017-08-13T00:54:29.840Z,0
2017-08-13T00:54:55.973Z,0
2017-08-13T00:55:22.108Z,0
2017-08-13T00:55:48.231Z,0
2017-08-13T00:56:14.360Z,0
2017-08-13T00:56:40.496Z,0
2017-08-13T00:57:06.651Z,0
2017-08-13T00:57:32.740Z,0
2017-08-13T00:57:58.841Z,0
2017-08-13T00:58:24.999Z,0
2017-08-13T00:58:51.111Z,0
2017-08-13T00:59:17.232Z,0
2017-08-13T00:59:43.363Z,0
2017-08-13T01:00:09.478Z,0
2017-08-13T01:00:35.598Z,0
2017-08-13T01:01:01.729Z,0
2017-08-13T01:01:27.873Z,0
2017-08-13T01:01:54.011Z,0
2017-08-13T01:02:20.139Z,0
2017-08-13T01:02:46.261Z,0
2017-08-13T01:03:12.396Z,0
2017-08-13T01:03:38.539Z,0
2017-08-13T01:04:04.661Z,0
2017-08-13T01:04:30.767Z,0
2017-08-13T01:04:56.859Z,0
2017-08-13T01:05:22.947Z,0
2017-08-13T01:05:49.106Z,0
2017-08-13T01:06:15.232Z,0
2017-08-13T01:06:41.415Z,0
2017-08-13T01:07:07.546Z,0
2017-08-13T01:07:33.750Z,0
2017-08-13T01:07:59.848Z,0
2017-08-13T01:08:25.942Z,0
2017-08-13T01:08:52.058Z,0
2017-08-13T01:09:18.192Z,0
2017-08-13T01:09:44.323Z,0
2017-08-13T01:10:10.455Z,0
2017-08-13T01:10:36.585Z,0
2017-08-13T01:11:02.712Z,0
2017-08-13T01:11:28.827Z,0
2017-08-13T01:11:54.957Z,0
2017-08-13T01:12:21.091Z,0
2017-08-13T01:12:47.251Z,0
2017-08-13T01:13:13.351Z,0
2017-08-13T01:13:39.520Z,0
2017-08-13T01:14:05.702Z,0
2017-08-13T01:14:31.854Z,0
2017-08-13T01:14:57.969Z,0
2017-08-13T01:15:24.123Z,0
2017-08-13T01:15:50.256Z,0
2017-08-13T01:16:16.342Z,0
2017-08-13T01:16:42.442Z,0
2017-08-13T01:17:08.547Z,0
2017-08-13T01:17:34.661Z,0
2017-08-13T01:18:00.804Z,0
2017-08-13T01:18:26.939Z,0
2017-08-13T01:18:53.113Z,0
2017-08-13T01:19:19.199Z,0
2017-08-13T01:19:45.306Z,0
2017-08-13T01:20:11.429Z,0
2017-08-13T01:20:37.543Z,0
2017-08-13T01:21:03.700Z,0
2017-08-13T01:21:29.802Z,0
2017-08-13T01:21:55.915Z,0
2017-08-13T01:22:22.044Z,0
2017-08-13T01:22:48.178Z,0
2017-08-13T01:23:14.291Z,0
2017-08-13T01:23:40.437Z,0
2017-08-13T01:24:06.566Z,0
2017-08-13T01:24:32.680Z,0
2017-08-13T01:24:58.806Z,0
2017-08-13T01:25:24.960Z,0
2017-08-13T01:25:51.092Z,0
2017-08-13T01:26:17.252Z,0
2017-08-13T01:26:43.365Z,0
2017-08-13T01:27:09.513Z,0
2017-08-13T01:27:35.673Z,0
2017-08-13T01:28:01.786Z,0
2017-08-13T01:28:27.930Z,0
2017-08-13T01:28:54.090Z,0
2017-08-13T01:29:20.233Z,0
2017-08-13T01:29:46.369Z,0
2017-08-13T01:30:12.499Z,0
2017-08-13T01:30:38.620Z,0
2017-08-13T01:31:04.751Z,0
2017-08-13T01:31:30.840Z,0
2017-08-13T01:31:56.985Z,0
2017-08-13T01:32:23.117Z,0
2017-08-13T01:32:49.207Z,0
2017-08-13T01:33:15.320Z,0
2017-08-13T01:33:41.512Z,0
2017-08-13T01:34:07.661Z,0
2017-08-13T01:34:33.775Z,0
2017-08-13T01:34:59.907Z,0
2017-08-13T01:35:26.002Z,0
2017-08-13T01:35:52.101Z,0
2017-08-13T01:36:18.220Z,0
2017-08-13T01:36:44.312Z,0
2017-08-13T01:37:10.504Z,0
2017-08-13T01:37:36.599Z,0
2017-08-13T01:38:02.737Z,0
2017-08-13T01:38:28.866Z,0
2017-08-13T01:38:54.992Z,0
2017-08-13T01:39:21.104Z,0
2017-08-13T01:39:47.229Z,0
2017-08-13T01:40:13.333Z,0
2017-08-13T01:40:39.420Z,0
2017-08-13T01:41:05.520Z,0
2017-08-13T01:41:31.613Z,0
2017-08-13T01:41:57.716Z,0
2017-08-13T01:42:23.869Z,0
2017-08-13T01:42:49.982Z,0
2017-08-13T01:43:16.113Z,0
2017-08-13T01:43:42.270Z,0
2017-08-13T01:44:08.378Z,0
2017-08-13T01:44:34.526Z,0
2017-08-13T01:45:00.714Z,0
2017-08-13T01:45:26.882Z,0
2017-08-13T01:45:53.027Z,0
2017-08-13T01:46:19.158Z,0
2017-08-13T01:46:45.272Z,0
2017-08-13T01:47:11.401Z,0
2017-08-13T01:47:37.511Z,0
2017-08-13T01:48:03.636Z,0
2017-08-13T01:48:29.769Z,0
2017-08-13T01:48:55.858Z,0
2017-08-13T01:49:21.978Z,0
2017-08-13T01:49:48.110Z,0
2017-08-13T01:50:14.252Z,0
2017-08-13T01:50:40.364Z,0
2017-08-13T01:51:06.471Z,0
2017-08-13T01:51:32.563Z,0
2017-08-13T01:51:58.681Z,0
2017-08-13T01:52:24.786Z,0
2017-08-13T01:52:50.926Z,0
2017-08-13T01:53:17.086Z,0
2017-08-13T01:53:43.287Z,0
2017-08-13T01:54:09.400Z,0
2017-08-13T01:54:35.561Z,0
2017-08-13T01:55:01.655Z,0
2017-08-13T01:55:27.792Z,0
2017-08-13T01:55:53.899Z,0
2017-08-13T01:56:20.026Z,0
2017-08-13T01:56:46.191Z,0
2017-08-13T01:57:12.297Z,0
2017-08-13T01:57:38.453Z,0
2017-08-13T01:58:04.572Z,0
2017-08-13T01:58:30.724Z,0
2017-08-13T01:58:56.810Z,0
2017-08-13T01:59:22.941Z,0
2017-08-13T01:59:49.115Z,0
2017-08-13T02:00:15.205Z,0
2017-08-13T02:00:41.308Z,0
2017-08-13T02:01:07.441Z,0
2017-08-13T02:01:33.577Z,0
2017-08-13T02:01:59.750Z,0
2017-08-13T02:02:25.883Z,0
2017-08-13T02:02:51.997Z,0
2017-08-13T02:03:18.122Z,0
2017-08-13T02:03:44.276Z,0
2017-08-13T02:04:10.450Z,0
2017-08-13T02:04:36.633Z,0
2017-08-13T02:05:02.796Z,0
2017-08-13T02:05:28.917Z,0
2017-08-13T02:05:55.055Z,0
2017-08-13T02:06:21.267Z,0
2017-08-13T02:06:47.393Z,0
2017-08-13T02:07:13.507Z,0
2017-08-13T02:07:39.633Z,0
2017-08-13T02:08:05.765Z,0
2017-08-13T02:08:31.901Z,0
2017-08-13T02:08:58.021Z,0
2017-08-13T02:09:24.138Z,0
2017-08-13T02:09:50.300Z,0
2017-08-13T02:10:16.450Z,0
2017-08-13T02:10:42.539Z,0
2017-08-13T02:11:08.666Z,0
2017-08-13T02:11:34.824Z,0
2017-08-13T02:12:00.935Z,0
2017-08-13T02:12:27.084Z,0
2017-08-13T02:12:53.219Z,0
2017-08-13T02:13:19.379Z,0
2017-08-13T02:13:45.526Z,0
2017-08-13T02:14:11.684Z,0
2017-08-13T02:14:37.803Z,0
2017-08-13T02:15:03.933Z,0
2017-08-13T02:15:30.096Z,0
2017-08-13T02:15:56.192Z,0
2017-08-13T02:16:22.354Z,0
2017-08-13T02:16:48.497Z,0
2017-08-13T02:17:14.640Z,0
2017-08-13T02:17:40.774Z,0
2017-08-13T02:18:06.866Z,0
2017-08-13T02:18:32.957Z,0
2017-08-13T02:18:59.147Z,0
2017-08-13T02:19:25.269Z,0
2017-08-13T02:19:51.429Z,0
2017-08-13T02:20:17.561Z,0
2017-08-13T02:20:43.683Z,0
2017-08-13T02:21:09.821Z,0
2017-08-13T02:21:35.946Z,0
2017-08-13T02:22:02.052Z,0
2017-08-13T02:22:28.213Z,0
2017-08-13T02:22:54.335Z,0
2017-08-13T02:23:20.448Z,0
2017-08-13T02:23:46.552Z,0
2017-08-13T02:24:12.678Z,0
2017-08-13T02:24:40.288Z,0
2017-08-13T02:25:06.407Z,0
2017-08-13T02:25:32.546Z,0
2017-08-13T02:25:58.725Z,0
2017-08-13T02:26:24.805Z,0
2017-08-13T02:26:50.942Z,0
2017-08-13T02:27:17.048Z,0
2017-08-13T02:27:43.200Z,0
2017-08-13T02:28:09.317Z,0
2017-08-13T02:28:35.418Z,0
2017-08-13T02:29:01.577Z,0
2017-08-13T02:29:27.715Z,0
2017-08-13T02:29:53.812Z,0
2017-08-13T02:30:19.944Z,0
2017-08-13T02:30:46.062Z,0
2017-08-13T02:31:12.249Z,0
2017-08-13T02:31:38.347Z,0
2017-08-13T02:32:04.523Z,0
2017-08-13T02:32:30.683Z,0
2017-08-13T02:32:56.869Z,0
2017-08-13T02:33:22.991Z,0
2017-08-13T02:33:49.125Z,0
2017-08-13T02:34:15.260Z,0
2017-08-13T02:34:41.426Z,0
2017-08-13T02:35:07.589Z,0
2017-08-13T02:35:33.761Z,0
2017-08-13T02:35:59.874Z,0
2017-08-13T02:36:26.033Z,0
2017-08-13T02:36:52.184Z,0
2017-08-13T02:37:18.288Z,0
2017-08-13T02:37:44.456Z,0
2017-08-13T02:38:10.624Z,0
2017-08-13T02:38:36.768Z,0
2017-08-13T02:39:02.899Z,0
2017-08-13T02:39:29.010Z,0
2017-08-13T02:39:55.197Z,0
2017-08-13T02:40:21.347Z,0
2017-08-13T02:40:47.484Z,0
2017-08-13T02:41:13.615Z,0
2017-08-13T02:41:39.742Z,0
2017-08-13T02:42:05.837Z,0
2017-08-13T02:42:32.011Z,0
2017-08-13T02:42:58.177Z,0
2017-08-13T02:43:24.315Z,0
2017-08-13T02:43:50.464Z,0
2017-08-13T02:44:16.578Z,0
2017-08-13T02:44:42.735Z,0
2017-08-13T02:45:08.860Z,0
2017-08-13T02:45:34.950Z,0
2017-08-13T02:46:01.128Z,0
2017-08-13T02:46:27.291Z,0
2017-08-13T02:46:53.471Z,0
2017-08-13T02:47:19.594Z,0
2017-08-13T02:47:45.751Z,0
2017-08-13T02:48:11.865Z,0
2017-08-13T02:48:37.985Z,0
2017-08-13T02:49:04.146Z,0
2017-08-13T02:49:30.321Z,0
2017-08-13T02:49:56.482Z,0
2017-08-13T02:50:22.641Z,0
2017-08-13T02:50:48.766Z,0
2017-08-13T02:51:14.856Z,0
2017-08-13T02:51:40.959Z,0
2017-08-13T02:52:07.142Z,0
2017-08-13T02:52:33.279Z,0
2017-08-13T02:52:59.405Z,0
2017-08-13T02:53:25.539Z,0
2017-08-13T02:53:51.682Z,0
2017-08-13T02:54:17.806Z,0
2017-08-13T02:54:43.966Z,0
2017-08-13T02:55:10.096Z,0
2017-08-13T02:55:36.194Z,0
2017-08-13T02:56:02.308Z,0
2017-08-13T02:56:28.509Z,0
2017-08-13T02:56:54.723Z,0
2017-08-13T02:57:20.861Z,0
2017-08-13T02:57:46.991Z,0
2017-08-13T02:58:13.199Z,0
2017-08-13T02:58:39.339Z,0
2017-08-13T02:59:05.433Z,0
2017-08-13T02:59:31.529Z,0
2017-08-13T02:59:57.635Z,0
2017-08-13T03:00:23.791Z,0
2017-08-13T03:00:49.879Z,0
2017-08-13T03:01:16.023Z,0
2017-08-13T03:01:42.183Z,0
2017-08-13T03:02:08.322Z,0
2017-08-13T03:02:34.468Z,0
2017-08-13T03:03:00.627Z,0
2017-08-13T03:03:26.773Z,0
2017-08-13T03:03:52.907Z,0
2017-08-13T03:04:19.038Z,0
2017-08-13T03:04:45.215Z,0
2017-08-13T03:05:11.368Z,0
2017-08-13T03:05:37.508Z,0
2017-08-13T03:06:03.628Z,0
2017-08-13T03:06:29.731Z,0
2017-08-13T03:06:55.877Z,0
2017-08-13T03:07:21.991Z,0
2017-08-13T03:07:48.098Z,0
2017-08-13T03:08:14.220Z,0
2017-08-13T03:08:40.330Z,0
2017-08-13T03:09:06.434Z,0
2017-08-13T03:09:32.532Z,0
2017-08-13T03:09:58.626Z,0
2017-08-13T03:10:24.721Z,0
2017-08-13T03:10:50.834Z,0
2017-08-13T03:11:16.942Z,0
2017-08-13T03:11:43.036Z,0
2017-08-13T03:12:09.150Z,0
2017-08-13T03:12:35.283Z,0
2017-08-13T03:13:01.382Z,0
2017-08-13T03:13:27.496Z,0
2017-08-13T03:13:53.648Z,0
2017-08-13T03:14:19.753Z,0
2017-08-13T03:14:45.837Z,0
2017-08-13T03:15:11.962Z,0
2017-08-13T03:15:38.095Z,0
2017-08-13T03:16:04.192Z,0
2017-08-13T03:16:30.311Z,0
2017-08-13T03:16:56.447Z,0
2017-08-13T03:17:22.598Z,0
2017-08-13T03:17:48.732Z,0
2017-08-13T03:18:14.819Z,0
2017-08-13T03:18:40.972Z,0
2017-08-13T03:19:07.103Z,0
2017-08-13T03:19:33.220Z,0
2017-08-13T03:19:59.366Z,0
2017-08-13T03:20:25.524Z,0
2017-08-13T03:20:51.645Z,0
2017-08-13T03:21:17.782Z,0
2017-08-13T03:21:43.910Z,0
2017-08-13T03:22:10.056Z,0
2017-08-13T03:22:36.162Z,0
2017-08-13T03:23:02.275Z,0
2017-08-13T03:23:28.446Z,0
2017-08-13T03:23:54.577Z,0
2017-08-13T03:24:20.722Z,0
2017-08-13T03:24:46.859Z,0
2017-08-13T03:25:13.052Z,0
2017-08-13T03:25:39.175Z,0
2017-08-13T03:26:05.289Z,0
2017-08-13T03:26:31.470Z,0
2017-08-13T03:26:57.626Z,0
2017-08-13T03:27:23.725Z,0
2017-08-13T03:27:49.815Z,0
2017-08-13T03:28:15.903Z,0
2017-08-13T03:28:42.090Z,0
2017-08-13T03:29:08.183Z,0
2017-08-13T03:29:34.299Z,0
2017-08-13T03:30:00.450Z,0
2017-08-13T03:30:26.607Z,4
2017-08-13T03:30:52.768Z,4
2017-08-13T03:31:18.941Z,4
2017-08-13T03:31:45.155Z,4
2017-08-13T03:32:11.266Z,4
2017-08-13T03:32:37.390Z,0
2017-08-13T03:33:03.494Z,0
2017-08-13T03:33:29.607Z,0
2017-08-13T03:33:55.754Z,4
2017-08-13T03:34:21.942Z,4
2017-08-13T03:34:48.085Z,4
2017-08-13T03:35:14.223Z,4
2017-08-13T03:35:40.361Z,4
2017-08-13T03:36:06.480Z,4
2017-08-13T03:36:32.569Z,4
2017-08-13T03:36:58.674Z,4
2017-08-13T03:37:24.828Z,4
2017-08-13T03:37:50.966Z,8
2017-08-13T03:38:17.093Z,4
2017-08-13T03:38:43.182Z,4
2017-08-13T03:39:09.340Z,8
2017-08-13T03:39:35.461Z,8
2017-08-13T03:40:01.561Z,8
2017-08-13T03:40:27.734Z,8
2017-08-13T03:40:53.857Z,12
2017-08-13T03:41:19.946Z,8
2017-08-13T03:41:46.074Z,12
2017-08-13T03:42:12.203Z,8
2017-08-13T03:42:38.289Z,12
2017-08-13T03:43:04.413Z,12
2017-08-13T03:43:30.546Z,16
2017-08-13T03:43:56.688Z,12
2017-08-13T03:44:22.869Z,16
2017-08-13T03:44:49.032Z,16
2017-08-13T03:45:15.131Z,16
2017-08-13T03:45:41.235Z,16
2017-08-13T03:46:07.369Z,20
2017-08-13T03:46:33.516Z,20
2017-08-13T03:46:59.624Z,24
2017-08-13T03:47:25.764Z,24
2017-08-13T03:47:51.857Z,24
2017-08-13T03:48:17.961Z,28
2017-08-13T03:48:44.081Z,28
2017-08-13T03:49:10.195Z,32
2017-08-13T03:49:36.404Z,32
2017-08-13T03:50:02.502Z,36
2017-08-13T03:50:28.607Z,40
2017-08-13T03:50:54.695Z,40
2017-08-13T03:51:20.813Z,44
2017-08-13T03:51:47.001Z,44
2017-08-13T03:52:13.117Z,48
2017-08-13T03:52:39.254Z,52
2017-08-13T03:53:05.390Z,56
2017-08-13T03:53:31.511Z,56
2017-08-13T03:53:57.648Z,60
2017-08-13T03:54:23.753Z,64
2017-08-13T03:54:49.907Z,68
2017-08-13T03:55:16.031Z,72
2017-08-13T03:55:42.121Z,76
2017-08-13T03:56:08.234Z,80
2017-08-13T03:56:34.419Z,84
2017-08-13T03:57:00.514Z,92
2017-08-13T03:57:26.626Z,96
2017-08-13T03:57:52.754Z,100
2017-08-13T03:58:18.876Z,104
2017-08-13T03:58:44.967Z,108
2017-08-13T03:59:11.113Z,116
2017-08-13T03:59:37.245Z,120
2017-08-13T04:00:03.357Z,128
2017-08-13T04:00:29.453Z,136
2017-08-13T04:00:55.544Z,140
2017-08-13T04:01:21.699Z,148
2017-08-13T04:01:47.826Z,156
2017-08-13T04:02:13.965Z,164
2017-08-13T04:02:40.090Z,172
2017-08-13T04:03:06.194Z,180
2017-08-13T04:03:32.302Z,188
2017-08-13T04:03:58.424Z,196
2017-08-13T04:04:24.584Z,204
2017-08-13T04:04:50.694Z,212
2017-08-13T04:05:16.839Z,224
2017-08-13T04:05:42.969Z,232
2017-08-13T04:06:09.088Z,244
2017-08-13T04:06:35.244Z,256
2017-08-13T04:07:01.353Z,264
2017-08-13T04:07:27.498Z,276
2017-08-13T04:07:53.612Z,288
2017-08-13T04:08:19.724Z,296
2017-08-13T04:08:45.869Z,312
2017-08-13T04:09:12.030Z,324
2017-08-13T04:09:38.148Z,336
2017-08-13T04:10:04.261Z,348
2017-08-13T04:10:30.368Z,360
2017-08-13T04:10:56.464Z,376
2017-08-13T04:11:22.580Z,384
2017-08-13T04:11:48.762Z,400
2017-08-13T04:12:14.878Z,416
2017-08-13T04:12:40.983Z,432
2017-08-13T04:13:07.123Z,444
2017-08-13T04:13:33.254Z,460
2017-08-13T04:13:59.367Z,476
2017-08-13T04:14:25.515Z,492
2017-08-13T04:14:51.652Z,508
2017-08-13T04:15:17.833Z,524
2017-08-13T04:15:43.957Z,540
2017-08-13T04:16:10.072Z,556
2017-08-13T04:16:36.222Z,572
2017-08-13T04:17:02.355Z,592
2017-08-13T04:17:28.510Z,608
2017-08-13T04:17:54.633Z,628
2017-08-13T04:18:20.768Z,648
2017-08-13T04:18:46.854Z,664
2017-08-13T04:19:12.972Z,684
2017-08-13T04:19:39.077Z,704
2017-08-13T04:20:05.182Z,724
2017-08-13T04:20:31.305Z,744
2017-08-13T04:20:57.493Z,764
2017-08-13T04:21:23.617Z,784
2017-08-13T04:21:49.780Z,808
2017-08-13T04:22:15.914Z,828
2017-08-13T04:22:42.011Z,848
2017-08-13T04:23:08.184Z,872
2017-08-13T04:23:34.300Z,896
2017-08-13T04:24:00.411Z,916
2017-08-13T04:24:26.518Z,936
2017-08-13T04:24:52.637Z,964
2017-08-13T04:25:18.771Z,984
2017-08-13T04:25:44.930Z,1012
2017-08-13T04:26:11.083Z,1036
2017-08-13T04:26:37.197Z,1060
2017-08-13T04:27:03.300Z,1080
2017-08-13T04:27:29.459Z,1104
2017-08-13T04:27:55.549Z,1128
2017-08-13T04:28:21.676Z,1152
2017-08-13T04:28:47.789Z,1176
2017-08-13T04:29:13.948Z,1200
2017-08-13T04:29:40.046Z,1228
2017-08-13T04:30:06.185Z,1252
2017-08-13T04:30:32.286Z,1280
2017-08-13T04:30:58.391Z,1304
2017-08-13T04:31:24.498Z,1328
2017-08-13T04:31:50.623Z,1352
2017-08-13T04:32:16.727Z,1376
2017-08-13T04:32:42.841Z,1404
2017-08-13T04:33:08.962Z,1428
2017-08-13T04:33:35.122Z,1452
2017-08-13T04:34:01.296Z,1480
2017-08-13T04:34:27.427Z,1504
2017-08-13T04:34:53.538Z,1528
2017-08-13T04:35:19.637Z,1560
2017-08-13T04:35:45.738Z,1588
2017-08-13T04:36:11.849Z,1616
2017-08-13T04:36:37.968Z,1640
2017-08-13T04:37:04.102Z,1668
2017-08-13T04:37:30.223Z,1692
2017-08-13T04:37:56.337Z,1716
2017-08-13T04:38:22.474Z,1740
2017-08-13T04:38:48.613Z,1768
2017-08-13T04:39:14.687Z,1796
2017-08-13T04:39:40.791Z,1820
2017-08-13T04:40:06.884Z,1852
2017-08-13T04:40:32.990Z,1880
2017-08-13T04:40:59.109Z,1908
2017-08-13T04:41:25.248Z,1936
2017-08-13T04:41:51.382Z,1960
2017-08-13T04:42:17.506Z,1984
2017-08-13T04:42:43.620Z,2012
2017-08-13T04:43:09.737Z,2036
2017-08-13T04:43:35.823Z,2064
2017-08-13T04:44:01.910Z,2092
2017-08-13T04:44:28.064Z,2116
2017-08-13T04:44:54.168Z,2144
2017-08-13T04:45:20.286Z,2172
2017-08-13T04:45:46.408Z,2204
2017-08-13T04:46:12.495Z,2228
2017-08-13T04:46:38.624Z,2260
2017-08-13T04:47:04.747Z,2284
2017-08-13T04:47:30.837Z,2316
2017-08-13T04:47:56.966Z,2344
2017-08-13T04:48:23.096Z,2380
2017-08-13T04:48:49.183Z,2408
2017-08-13T04:49:15.332Z,2440
2017-08-13T04:49:41.466Z,2468
2017-08-13T04:50:07.607Z,2496
2017-08-13T04:50:33.753Z,2528
2017-08-13T04:50:59.921Z,2556
2017-08-13T04:51:26.057Z,2580
2017-08-13T04:51:52.219Z,2604
2017-08-13T04:52:18.330Z,2636
2017-08-13T04:52:44.432Z,2660
2017-08-13T04:53:10.561Z,2688
2017-08-13T04:53:36.679Z,2716
2017-08-13T04:54:02.799Z,2748
2017-08-13T04:54:28.957Z,2776
2017-08-13T04:54:55.076Z,2804
2017-08-13T04:55:21.191Z,2836
2017-08-13T04:55:47.329Z,2860
2017-08-13T04:56:13.446Z,2884
2017-08-13T04:56:39.550Z,2908
2017-08-13T04:57:05.692Z,2932
2017-08-13T04:57:31.833Z,2964
2017-08-13T04:57:57.964Z,2988
2017-08-13T04:58:24.084Z,3008
2017-08-13T04:58:50.174Z,3040
2017-08-13T04:59:16.309Z,3068
2017-08-13T04:59:42.433Z,3096
2017-08-13T05:00:08.544Z,3120
2017-08-13T05:00:34.705Z,3144
2017-08-13T05:01:00.831Z,3168
2017-08-13T05:01:27.018Z,3196
2017-08-13T05:01:53.168Z,3224
2017-08-13T05:02:19.327Z,3244
2017-08-13T05:02:45.437Z,3268
2017-08-13T05:03:11.608Z,3288
2017-08-13T05:03:37.740Z,3312
2017-08-13T05:04:03.829Z,3336
2017-08-13T05:04:29.976Z,3364
2017-08-13T05:04:56.082Z,3388
2017-08-13T05:05:22.248Z,3412
2017-08-13T05:05:48.362Z,3432
2017-08-13T05:06:14.496Z,3452
2017-08-13T05:06:40.674Z,3472
2017-08-13T05:07:06.810Z,3492
2017-08-13T05:07:32.940Z,3520
2017-08-13T05:07:59.081Z,3544
2017-08-13T05:08:25.213Z,3568
2017-08-13T05:08:51.335Z,3596
2017-08-13T05:09:17.449Z,3620
2017-08-13T05:09:43.582Z,3640
2017-08-13T05:10:09.680Z,3656
2017-08-13T05:10:35.769Z,3684
2017-08-13T05:11:01.956Z,3708
2017-08-13T05:11:28.078Z,3732
2017-08-13T05:11:54.216Z,3752
2017-08-13T05:12:20.343Z,3780
2017-08-13T05:12:46.475Z,3800
2017-08-13T05:13:12.603Z,3828
2017-08-13T05:13:38.714Z,3852
2017-08-13T05:14:04.829Z,3868
2017-08-13T05:14:30.980Z,3900
2017-08-13T05:14:57.079Z,3928
2017-08-13T05:15:23.238Z,3948
2017-08-13T05:15:49.365Z,3972
2017-08-13T05:16:15.469Z,3988
2017-08-13T05:16:41.628Z,4004
2017-08-13T05:17:07.728Z,4024
2017-08-13T05:17:33.859Z,4040
2017-08-13T05:17:59.949Z,4052
2017-08-13T05:18:26.090Z,4060
2017-08-13T05:18:52.266Z,4072
2017-08-13T05:19:18.395Z,4084
2017-08-13T05:19:44.612Z,4104
2017-08-13T05:20:10.766Z,4128
2017-08-13T05:20:36.865Z,4152
2017-08-13T05:21:02.969Z,4172
2017-08-13T05:21:29.085Z,4184
2017-08-13T05:21:55.253Z,4208
2017-08-13T05:22:21.413Z,4228
2017-08-13T05:22:47.532Z,4256
2017-08-13T05:23:13.694Z,4284
2017-08-13T05:23:39.802Z,4308
2017-08-13T05:24:05.975Z,4328
2017-08-13T05:24:32.104Z,4344
2017-08-13T05:24:58.223Z,4356
2017-08-13T05:25:24.368Z,4364
2017-08-13T05:25:50.473Z,4384
2017-08-13T05:26:16.620Z,4420
2017-08-13T05:26:42.757Z,4436
2017-08-13T05:27:08.864Z,4444
2017-08-13T05:27:34.986Z,4456
2017-08-13T05:28:01.125Z,4472
2017-08-13T05:28:27.280Z,4496
2017-08-13T05:28:53.377Z,4524
2017-08-13T05:29:19.515Z,4552
2017-08-13T05:29:45.644Z,4580
2017-08-13T05:30:11.760Z,4604
2017-08-13T05:30:37.896Z,4624
2017-08-13T05:31:04.012Z,4656
2017-08-13T05:31:30.149Z,4676
2017-08-13T05:31:56.283Z,4696
2017-08-13T05:32:22.435Z,4720
2017-08-13T05:32:48.525Z,4744
2017-08-13T05:33:14.625Z,4764
2017-08-13T05:33:40.729Z,4784
2017-08-13T05:34:06.896Z,4796
2017-08-13T05:34:33.020Z,4812
2017-08-13T05:34:59.152Z,4824
2017-08-13T05:35:25.267Z,4840
2017-08-13T05:35:51.394Z,4860
2017-08-13T05:36:17.508Z,4884
2017-08-13T05:36:43.636Z,4908
2017-08-13T05:37:09.739Z,4928
2017-08-13T05:37:35.850Z,4948
2017-08-13T05:38:01.972Z,4976
2017-08-13T05:38:28.132Z,5004
2017-08-13T05:38:54.246Z,5032
2017-08-13T05:39:20.370Z,5056
2017-08-13T05:39:46.530Z,5084
2017-08-13T05:40:12.698Z,5108
2017-08-13T05:40:38.811Z,5120
2017-08-13T05:41:04.944Z,5140
2017-08-13T05:41:31.042Z,5160
2017-08-13T05:41:57.198Z,5176
2017-08-13T05:42:23.339Z,5192
2017-08-13T05:42:49.456Z,5208
2017-08-13T05:43:15.590Z,5228
2017-08-13T05:43:41.679Z,5244
2017-08-13T05:44:07.767Z,5260
2017-08-13T05:44:33.876Z,5276
2017-08-13T05:45:00.028Z,5288
2017-08-13T05:45:26.140Z,5308
2017-08-13T05:45:52.325Z,5316
2017-08-13T05:46:18.532Z,5316
2017-08-13T05:46:44.718Z,5328
2017-08-13T05:47:10.917Z,5336
2017-08-13T05:47:37.050Z,5348
2017-08-13T05:48:03.161Z,5360
2017-08-13T05:48:29.282Z,5372
2017-08-13T05:48:55.442Z,5376
2017-08-13T05:49:21.534Z,5392
2017-08-13T05:49:47.678Z,5400
2017-08-13T05:50:13.836Z,5420
2017-08-13T05:50:39.928Z,5436
2017-08-13T05:51:06.042Z,5460
2017-08-13T05:51:32.174Z,5480
2017-08-13T05:51:58.323Z,5504
2017-08-13T05:52:24.426Z,5520
2017-08-13T05:52:50.547Z,5540
2017-08-13T05:53:16.661Z,5556
2017-08-13T05:53:42.792Z,5572
2017-08-13T05:54:08.936Z,5580
2017-08-13T05:54:35.027Z,5592
2017-08-13T05:55:01.133Z,5608
2017-08-13T05:55:27.313Z,5616
2017-08-13T05:55:53.405Z,5628
2017-08-13T05:56:19.531Z,5640
2017-08-13T05:56:45.686Z,5652
2017-08-13T05:57:11.846Z,5664
2017-08-13T05:57:38.001Z,5676
2017-08-13T05:58:04.119Z,5688
2017-08-13T05:58:30.252Z,5700
2017-08-13T05:58:56.372Z,5700
2017-08-13T05:59:22.509Z,5708
2017-08-13T05:59:48.641Z,5732
2017-08-13T06:00:14.740Z,5744
2017-08-13T06:00:40.858Z,5756
2017-08-13T06:01:06.984Z,5772
2017-08-13T06:01:33.148Z,5788
2017-08-13T06:01:59.256Z,5808
2017-08-13T06:02:25.355Z,5824
2017-08-13T06:02:51.488Z,5844
2017-08-13T06:03:17.603Z,5860
2017-08-13T06:03:43.760Z,5884
2017-08-13T06:04:09.899Z,5904
2017-08-13T06:04:36.026Z,5924
2017-08-13T06:05:02.129Z,5940
2017-08-13T06:05:28.215Z,5952
2017-08-13T06:05:54.312Z,5964
2017-08-13T06:06:20.415Z,5988
2017-08-13T06:06:46.530Z,6004
2017-08-13T06:07:12.624Z,6012
2017-08-13T06:07:38.730Z,6020
2017-08-13T06:08:04.820Z,6032
2017-08-13T06:08:30.936Z,6040
2017-08-13T06:08:57.143Z,6044
2017-08-13T06:09:23.262Z,6048
2017-08-13T06:09:49.396Z,6048
2017-08-13T06:10:15.486Z,6060
2017-08-13T06:10:41.580Z,6080
2017-08-13T06:11:07.711Z,6092
2017-08-13T06:11:33.802Z,6076